Time;durP1;ratioP1;P1;durP2;ratioP2;P2;SDS_P1;SDS_P2;PMS_P1;PMS_P2;Temp;Humidity;BMP_temperature;BMP_pressure;BME280_temperature;BME280_humidity;BME280_pressure;Samples;Min_cycle;Max_cycle;Signal;HPM_P1;HPM_P2
2022/11/24 00:00:19;;;;;;;;;;;;;;;24.78;45.25;93706.50;5004815;28;8860;-61
2022/11/24 00:02:48;;;;;;;;;;;;;;;24.79;45.61;93715.50;5006089;28;8235;-61
2022/11/24 00:05:16;;;;;;;;;;;;;;;24.76;45.57;93711.03;4988789;28;7036;-61
2022/11/24 00:07:41;;;;;;;;;;;;;;;24.75;45.86;93706.78;4999843;28;9423;-61
2022/11/24 00:10:10;;;;;;;;;;;;;;;24.73;45.17;93704.53;4983784;28;6994;-61
2022/11/24 00:12:38;;;;;;;;;;;;;;;24.76;45.39;93714.53;4981162;28;7151;-61
2022/11/24 00:15:16;;;;;;;;;;;;;;;24.75;45.72;93712.28;4996405;28;10154;-61
2022/11/24 00:17:41;;;;;;;;;;;;;;;24.74;45.86;93714.28;4989273;28;7278;-61
2022/11/24 00:20:08;;;;;;;;;;;;;;;24.73;46.09;93716.28;4988857;28;7244;-61
2022/11/24 00:22:35;;;;;;;;;;;;;;;24.73;45.77;93723.06;4987066;28;7117;-61
2022/11/24 00:25:01;;;;;;;;;;;;;;;24.75;45.84;93728.81;4976104;28;7161;-61
2022/11/24 00:27:30;;;;;;;;;;;;;;;24.70;45.50;93725.56;4995236;28;9567;-61
2022/11/24 00:29:58;;;;;;;;;;;;;;;24.70;45.75;93739.31;4990427;28;8633;-61
2022/11/24 00:32:30;;;;;;;;;;;;;;;24.73;46.01;93730.03;4979975;28;7149;-61
2022/11/24 00:34:57;;;;;;;;;;;;;;;24.71;45.69;93732.53;4983747;28;7470;-61
2022/11/24 00:37:28;;;;;;;;;;;;;;;24.70;45.82;93739.31;4991522;28;7059;-61
2022/11/24 00:39:55;;;;;;;;;;;;;;;24.68;46.16;93741.81;5011273;28;7384;-61
2022/11/24 00:42:28;;;;;;;;;;;;;;;24.70;46.11;93744.81;4991625;28;8758;-61
2022/11/24 00:45:03;;;;;;;;;;;;;;;24.71;46.06;93745.53;5011017;28;7190;-61
2022/11/24 00:47:35;;;;;;;;;;;;;;;24.69;45.26;93754.31;5006794;28;7300;-61
2022/11/24 00:50:29;;;;;;;;;;;;;;;24.68;45.97;93765.84;5001854;28;8744;-61
2022/11/24 00:53:05;;;;;;;;;;;;;;;24.67;45.80;93762.34;4975324;28;7491;-61
2022/11/24 00:55:35;;;;;;;;;;;;;;;24.67;45.38;93767.84;4985886;28;8253;-61
2022/11/24 00:58:02;;;;;;;;;;;;;;;24.66;45.83;93771.84;4974644;28;9250;-61
2022/11/24 01:00:39;;;;;;;;;;;;;;;24.67;46.11;93778.09;4976593;28;6961;-61
2022/11/24 01:03:05;;;;;;;;;;;;;;;24.66;45.79;93785.59;4977323;28;7353;-61
2022/11/24 01:05:37;;;;;;;;;;;;;;;24.65;46.06;93786.88;4975334;28;8922;-61
2022/11/24 01:08:04;;;;;;;;;;;;;;;24.66;45.36;93787.63;4994324;28;7274;-61
2022/11/24 01:10:30;;;;;;;;;;;;;;;24.66;45.56;93793.84;4983807;28;7148;-61
2022/11/24 01:13:08;;;;;;;;;;;;;;;24.66;45.69;93804.13;4989066;28;7846;-61
2022/11/24 01:15:37;;;;;;;;;;;;;;;24.66;45.35;93807.59;4969251;28;9738;-61
2022/11/24 01:18:04;;;;;;;;;;;;;;;24.64;46.26;93807.38;4988843;28;6872;-61
2022/11/24 01:20:41;;;;;;;;;;;;;;;24.64;45.28;93807.38;4982094;28;9280;-61
2022/11/24 01:23:19;;;;;;;;;;;;;;;24.63;45.98;93811.41;4972586;28;6957;-61
2022/11/24 01:25:54;;;;;;;;;;;;;;;24.64;45.40;93801.16;4987409;28;8338;-61
2022/11/24 01:28:30;;;;;;;;;;;;;;;24.64;45.95;93812.88;4989958;28;8448;-61
2022/11/24 01:31:09;;;;;;;;;;;;;;;24.64;45.70;93818.38;5005475;28;7239;-61
2022/11/24 01:33:36;;;;;;;;;;;;;;;24.64;45.75;93828.66;4985863;28;9440;-61
2022/11/24 01:36:14;;;;;;;;;;;;;;;24.65;45.64;93822.63;4989803;28;8432;-61
2022/11/24 01:38:40;;;;;;;;;;;;;;;24.64;45.79;93826.63;4976727;28;7279;-61
2022/11/24 01:41:24;;;;;;;;;;;;;;;24.66;45.48;93824.09;4980546;28;7085;-61
2022/11/24 01:44:23;;;;;;;;;;;;;;;24.63;46.33;93822.41;4999970;28;7025;-61
2022/11/24 01:46:57;;;;;;;;;;;;;;;24.59;45.80;93821.97;4989770;28;7080;-61
2022/11/24 01:49:44;;;;;;;;;;;;;;;24.59;45.75;93827.47;4991807;28;8261;-61
2022/11/24 01:52:15;;;;;;;;;;;;;;;24.60;45.81;93834.44;5004156;28;8275;-61
2022/11/24 01:55:12;;;;;;;;;;;;;;;24.63;45.86;93833.41;4976914;28;7043;-61
2022/11/24 01:57:49;;;;;;;;;;;;;;;24.62;45.94;93826.41;4985447;28;7077;-61
2022/11/24 02:00:17;;;;;;;;;;;;;;;24.62;46.04;93833.94;4981365;28;7361;-61
2022/11/24 02:02:44;;;;;;;;;;;;;;;24.61;45.74;93830.44;4989595;28;7202;-61
2022/11/24 02:05:19;;;;;;;;;;;;;;;24.61;46.01;93830.44;4982479;28;7015;-61
2022/11/24 02:07:47;;;;;;;;;;;;;;;24.62;45.98;93831.91;4976372;28;7402;-61
2022/11/24 02:10:15;;;;;;;;;;;;;;;24.63;46.17;93841.66;4991444;28;7072;-61
2022/11/24 02:12:48;;;;;;;;;;;;;;;24.63;45.62;93838.91;4987886;28;7116;-61
2022/11/24 02:15:20;;;;;;;;;;;;;;;24.65;45.62;93846.63;4995960;28;8894;-61
2022/11/24 02:17:48;;;;;;;;;;;;;;;24.63;45.87;93846.41;4993549;28;7070;-61
2022/11/24 02:20:47;;;;;;;;;;;;;;;24.63;45.98;93847.16;4992305;28;7033;-61
2022/11/24 02:23:35;;;;;;;;;;;;;;;24.63;45.73;93849.91;4973456;28;7255;-61
2022/11/24 02:26:24;;;;;;;;;;;;;;;24.64;45.71;93847.91;4983349;28;7310;-61
2022/11/24 02:28:51;;;;;;;;;;;;;;;24.61;45.38;93855.19;4987816;28;7227;-60
2022/11/24 02:31:17;;;;;;;;;;;;;;;24.62;45.47;93848.41;4982542;28;7181;-61
2022/11/24 02:33:45;;;;;;;;;;;;;;;24.59;45.85;93841.19;4989276;28;9274;-62
2022/11/24 02:36:14;;;;;;;;;;;;;;;24.60;45.89;93847.41;4989257;28;7236;-61
2022/11/24 02:38:42;;;;;;;;;;;;;;;24.60;46.01;93850.16;4989111;28;7243;-61
2022/11/24 02:41:15;;;;;;;;;;;;;;;24.61;45.63;93851.69;4986818;28;7308;-61
2022/11/24 02:44:00;;;;;;;;;;;;;;;24.59;45.74;93852.19;4967075;28;7089;-61
2022/11/24 02:46:29;;;;;;;;;;;;;;;24.59;46.15;93845.94;4981162;28;8502;-61
2022/11/24 02:49:00;;;;;;;;;;;;;;;24.61;45.55;93857.94;4991044;28;7039;-61
2022/11/24 02:51:27;;;;;;;;;;;;;;;24.62;45.99;93866.91;4974434;28;7210;-61
2022/11/24 02:53:55;;;;;;;;;;;;;;;24.62;45.13;93869.66;4987551;28;7065;-61
2022/11/24 02:56:24;;;;;;;;;;;;;;;24.61;45.67;93874.41;4990202;28;7518;-61
2022/11/24 02:58:52;;;;;;;;;;;;;;;24.60;46.13;93883.16;4967032;28;7423;-61
2022/11/24 03:01:21;;;;;;;;;;;;;;;24.57;45.79;93884.97;4993596;28;7239;-61
2022/11/24 03:03:47;;;;;;;;;;;;;;;24.57;45.70;93890.47;4989569;28;9491;-61
2022/11/24 03:06:13;;;;;;;;;;;;;;;24.58;46.14;93885.69;4984683;28;7232;-61
2022/11/24 03:08:44;;;;;;;;;;;;;;;24.55;46.03;93884.00;5005977;28;7179;-61
2022/11/24 03:11:23;;;;;;;;;;;;;;;24.58;45.32;93883.69;4988528;28;9189;-61
2022/11/24 03:13:55;;;;;;;;;;;;;;;24.58;45.53;93889.19;4990099;28;7205;-62
2022/11/24 03:16:22;;;;;;;;;;;;;;;24.59;45.45;93887.94;4986371;28;7972;-61
2022/11/24 03:18:54;;;;;;;;;;;;;;;24.59;45.68;93889.94;4998081;28;7009;-61
2022/11/24 03:21:23;;;;;;;;;;;;;;;24.58;46.16;93885.69;4983201;28;7471;-61
2022/11/24 03:24:15;;;;;;;;;;;;;;;24.62;46.05;93886.16;4986693;28;8113;-61
2022/11/24 03:26:43;;;;;;;;;;;;;;;24.62;46.06;93881.41;4962218;28;7511;-61
2022/11/24 03:29:17;;;;;;;;;;;;;;;24.60;45.77;93872.91;4974550;28;9632;-61
2022/11/24 03:31:43;;;;;;;;;;;;;;;24.59;45.83;93876.94;4967735;28;7486;-61
2022/11/24 03:34:12;;;;;;;;;;;;;;;24.64;46.04;93870.63;4982755;28;8199;-61
2022/11/24 03:36:38;;;;;;;;;;;;;;;24.68;45.62;93873.81;4964814;28;7211;-61
2022/11/24 03:39:04;;;;;;;;;;;;;;;24.74;45.87;93871.03;4961772;28;7464;-61
2022/11/24 03:41:33;;;;;;;;;;;;;;;24.76;45.77;93867.78;4982321;28;7177;-61
2022/11/24 03:43:58;;;;;;;;;;;;;;;24.77;45.05;93874.78;4976997;28;9313;-61
2022/11/24 03:46:24;;;;;;;;;;;;;;;24.74;44.95;93873.78;4968123;28;8216;-61
2022/11/24 03:48:52;;;;;;;;;;;;;;;24.70;45.32;93870.56;4978338;28;7347;-62
2022/11/24 03:51:18;;;;;;;;;;;;;;;24.68;45.78;93868.31;4965847;28;7033;-61
2022/11/24 03:53:44;;;;;;;;;;;;;;;24.67;45.11;93871.59;4982832;28;7167;-61
2022/11/24 03:56:13;;;;;;;;;;;;;;;24.64;45.62;93878.88;4969017;28;7078;-61
2022/11/24 03:58:40;;;;;;;;;;;;;;;24.64;45.83;93884.38;4975881;28;7122;-61
2022/11/24 04:01:08;;;;;;;;;;;;;;;24.62;45.37;93880.66;4971690;28;9656;-61
2022/11/24 04:03:36;;;;;;;;;;;;;;;24.59;45.76;93882.44;4970079;28;7733;-61
2022/11/24 04:06:02;;;;;;;;;;;;;;;24.58;46.16;93886.44;4981602;28;8926;-61
2022/11/24 04:08:30;;;;;;;;;;;;;;;24.62;45.87;93877.91;4983353;28;7116;-61
2022/11/24 04:10:58;;;;;;;;;;;;;;;24.62;45.41;93889.66;5006852;28;7290;-61
2022/11/24 04:13:26;;;;;;;;;;;;;;;24.63;45.75;93882.91;4999894;28;7163;-61
2022/11/24 04:15:53;;;;;;;;;;;;;;;24.60;45.44;93888.66;4994145;28;7116;-61
2022/11/24 04:18:21;;;;;;;;;;;;;;;24.58;45.93;93891.19;5002143;28;9127;-61
2022/11/24 04:20:49;;;;;;;;;;;;;;;24.57;45.52;93890.47;4982487;28;7621;-61
2022/11/24 04:23:16;;;;;;;;;;;;;;;24.58;46.08;93891.19;4997381;28;7293;-62
2022/11/24 04:25:42;;;;;;;;;;;;;;;24.56;45.67;93888.97;4988333;28;7045;-61
2022/11/24 04:28:12;;;;;;;;;;;;;;;24.55;46.22;93892.25;4996757;28;7090;-61
2022/11/24 04:30:43;;;;;;;;;;;;;;;24.57;45.93;93901.47;4996035;28;9096;-61
2022/11/24 04:33:15;;;;;;;;;;;;;;;24.54;45.58;93902.47;4983406;28;8658;-62
2022/11/24 04:35:41;;;;;;;;;;;;;;;24.57;45.34;93906.22;4992599;28;7131;-61
2022/11/24 04:38:11;;;;;;;;;;;;;;;24.59;45.95;93909.19;4993896;28;7024;-61
2022/11/24 04:40:37;;;;;;;;;;;;;;;24.58;45.50;93913.94;4992633;28;7452;-61
2022/11/24 04:43:03;;;;;;;;;;;;;;;24.58;45.87;93921.44;4977069;28;7435;-61
2022/11/24 04:45:29;;;;;;;;;;;;;;;24.58;45.42;93924.94;4977835;28;7760;-61
2022/11/24 04:48:07;;;;;;;;;;;;;;;24.59;45.50;93925.69;4999207;28;7871;-61
2022/11/24 04:50:35;;;;;;;;;;;;;;;24.58;45.70;93918.69;4994827;28;7386;-61
2022/11/24 04:53:08;;;;;;;;;;;;;;;24.54;45.88;93924.47;4991879;28;7283;-61
2022/11/24 04:55:40;;;;;;;;;;;;;;;24.54;45.83;93926.47;4983814;28;7463;-61
2022/11/24 04:58:09;;;;;;;;;;;;;;;24.55;45.75;93942.47;5009705;28;9044;-61
2022/11/24 05:00:45;;;;;;;;;;;;;;;24.55;45.25;93942.47;4991736;28;9756;-61
2022/11/24 05:03:11;;;;;;;;;;;;;;;24.53;46.12;93942.22;4989773;28;7295;-61
2022/11/24 05:05:36;;;;;;;;;;;;;;;24.52;45.49;93940.00;4995611;28;6986;-61
2022/11/24 05:08:02;;;;;;;;;;;;;;;24.49;45.89;93939.00;4995195;28;7284;-61
2022/11/24 05:10:39;;;;;;;;;;;;;;;24.53;45.61;93941.50;4985246;28;7591;-61
2022/11/24 05:13:12;;;;;;;;;;;;;;;24.53;45.62;93950.47;4990845;28;9344;-61
2022/11/24 05:15:44;;;;;;;;;;;;;;;24.52;46.08;93951.75;5007709;28;7200;-61
2022/11/24 05:18:16;;;;;;;;;;;;;;;24.51;45.59;93966.75;4994199;28;7526;-61
2022/11/24 05:20:48;;;;;;;;;;;;;;;24.53;45.79;93955.97;4987595;28;7046;-61
2022/11/24 05:23:23;;;;;;;;;;;;;;;24.53;45.61;93971.75;4977413;28;7545;-61
2022/11/24 05:25:55;;;;;;;;;;;;;;;24.51;45.66;93966.75;4996033;28;8701;-61
2022/11/24 05:28:21;;;;;;;;;;;;;;;24.51;45.48;93961.25;4998705;28;6983;-61
2022/11/24 05:30:48;;;;;;;;;;;;;;;24.51;45.49;93964.00;4989581;28;9376;-61
2022/11/24 05:33:19;;;;;;;;;;;;;;;24.51;45.55;93963.25;4989580;28;7407;-61
2022/11/24 05:35:50;;;;;;;;;;;;;;;24.49;45.63;93961.00;4986989;28;6876;-61
2022/11/24 05:38:22;;;;;;;;;;;;;;;24.46;45.60;93953.81;4976240;28;8326;-61
2022/11/24 05:40:50;;;;;;;;;;;;;;;24.48;45.59;93956.78;4986909;28;8925;-61
2022/11/24 05:43:51;;;;;;;;;;;;;;;24.47;46.32;93958.03;4985503;28;7359;-61
2022/11/24 05:46:33;;;;;;;;;;;;;;;24.46;46.03;93956.56;4965351;28;9010;-61
2022/11/24 05:49:00;;;;;;;;;;;;;;;24.50;45.72;93959.75;4958247;28;7026;-62
2022/11/24 05:51:29;;;;;;;;;;;;;;;24.52;49.87;93954.50;4972785;28;7381;-61
2022/11/24 05:54:04;;;;;;;;;;;;;;;24.61;49.27;93959.66;4972414;28;7312;-61
2022/11/24 05:56:33;;;;;;;;;;;;;;;24.63;49.10;93962.63;4964651;28;7254;-61
2022/11/24 05:59:09;;;;;;;;;;;;;;;24.67;47.69;93965.84;4956459;28;7118;-62
2022/11/24 06:01:48;;;;;;;;;;;;;;;24.73;46.24;93957.53;4952632;28;7082;-61
2022/11/24 06:04:16;;;;;;;;;;;;;;;24.73;47.14;93966.53;4946115;28;7280;-61
2022/11/24 06:06:42;;;;;;;;;;;;;;;24.73;45.46;93969.28;4964897;28;7171;-61
2022/11/24 06:09:12;;;;;;;;;;;;;;;24.71;45.66;93960.06;4963048;28;7404;-61
2022/11/24 06:11:38;;;;;;;;;;;;;;;24.72;45.57;93953.31;4941126;28;7539;-61
2022/11/24 06:14:34;;;;;;;;;;;;;;;24.73;45.16;93952.78;4940650;28;7185;-61
2022/11/24 06:17:11;;;;;;;;;;;;;;;24.79;46.04;93941.00;4887481;29;7341;-61
2022/11/24 06:19:44;;;;;;;;;;;;;;;24.73;44.71;93925.28;4880145;29;7291;-61
2022/11/24 06:22:41;;;;;;;;;;;;;;;24.77;45.09;93932.53;4914534;29;7199;-62
2022/11/24 06:25:18;;;;;;;;;;;;;;;24.79;45.13;93939.00;4919098;29;7033;-61
2022/11/24 06:27:47;;;;;;;;;;;;;;;24.80;45.10;93937.00;4915388;29;8326;-61
2022/11/24 06:30:14;;;;;;;;;;;;;;;24.86;44.47;93941.16;4930920;29;7306;-61
2022/11/24 06:32:43;;;;;;;;;;;;;;;24.85;44.09;93944.44;4932256;29;7437;-61
2022/11/24 06:35:12;;;;;;;;;;;;;;;24.85;44.04;93939.69;4930365;29;7223;-61
2022/11/24 06:37:38;;;;;;;;;;;;;;;24.82;43.79;93953.72;4931954;29;9746;-61
2022/11/24 06:40:34;;;;;;;;;;;;;;;24.82;44.03;93961.97;4933573;28;8486;-61
2022/11/24 06:43:17;;;;;;;;;;;;;;;24.81;43.78;93960.50;4941224;28;7282;-61
2022/11/24 06:46:00;;;;;;;;;;;;;;;24.79;44.14;93965.78;4925818;29;7343;-60
2022/11/24 06:48:34;;;;;;;;;;;;;;;24.77;44.35;93968.28;4916221;29;7303;-61
2022/11/24 06:51:05;;;;;;;;;;;;;;;24.73;44.46;93978.81;4917619;28;7673;-61
2022/11/24 06:53:43;;;;;;;;;;;;;;;24.72;43.89;93980.81;4941834;28;7293;-61
2022/11/24 06:57:00;;;;;;;;;;;;;;;24.71;43.75;93974.56;4966799;28;7287;-61
2022/11/24 06:59:28;;;;;;;;;;;;;;;24.73;44.47;93966.53;4931238;29;7350;-61
2022/11/24 07:02:03;;;;;;;;;;;;;;;24.76;43.95;93958.53;4927438;29;7039;-61
2022/11/24 07:04:31;;;;;;;;;;;;;;;24.73;44.41;93961.03;4910369;29;8897;-61
2022/11/24 07:06:57;;;;;;;;;;;;;;;24.71;44.50;93954.56;4902481;29;7295;-60
2022/11/24 07:09:23;;;;;;;;;;;;;;;24.73;44.38;93957.53;4926899;29;7461;-61
2022/11/24 07:11:50;;;;;;;;;;;;;;;24.70;44.28;93953.81;4913569;29;7286;-61
2022/11/24 07:14:18;;;;;;;;;;;;;;;24.67;44.52;93952.09;4899432;29;7128;-61
2022/11/24 07:16:53;;;;;;;;;;;;;;;24.65;44.92;93940.88;4912969;29;8825;-61
2022/11/24 07:19:28;;;;;;;;;;;;;;;24.71;44.54;93949.81;4907452;29;7122;-61
2022/11/24 07:21:56;;;;;;;;;;;;;;;24.71;44.61;93963.56;4915679;29;7247;-61
2022/11/24 07:24:24;;;;;;;;;;;;;;;24.71;44.62;93968.31;4924503;29;7269;-60
2022/11/24 07:26:50;;;;;;;;;;;;;;;24.70;44.55;93970.31;4926321;29;7033;-61
2022/11/24 07:29:16;;;;;;;;;;;;;;;24.73;44.42;93972.03;4927143;29;7162;-61
2022/11/24 07:31:45;;;;;;;;;;;;;;;24.77;44.79;93973.78;4921055;29;9028;-61
2022/11/24 07:34:13;;;;;;;;;;;;;;;24.78;44.61;93976.03;4929597;28;7197;-61
2022/11/24 07:36:43;;;;;;;;;;;;;;;24.76;44.87;93966.78;4996284;28;7272;-60
2022/11/24 07:39:10;;;;;;;;;;;;;;;24.71;44.95;93982.81;4988247;28;7159;-61
2022/11/24 07:41:36;;;;;;;;;;;;;;;24.70;44.82;93992.34;4983273;28;7439;-61
2022/11/24 07:44:02;;;;;;;;;;;;;;;24.68;44.67;93978.31;4998368;28;7094;-61
2022/11/24 07:46:29;;;;;;;;;;;;;;;24.66;44.90;93980.84;4985833;28;7129;-61
2022/11/24 07:49:00;;;;;;;;;;;;;;;24.64;44.88;93980.63;4989364;28;9195;-61
2022/11/24 07:51:25;;;;;;;;;;;;;;;24.63;45.51;93987.38;4979120;28;7169;-60
2022/11/24 07:53:52;;;;;;;;;;;;;;;24.62;45.21;93991.38;4985206;28;7688;-61
2022/11/24 07:56:18;;;;;;;;;;;;;;;24.63;45.54;93986.63;4987383;28;9217;-60
2022/11/24 07:58:50;;;;;;;;;;;;;;;24.61;45.34;93978.91;4986043;28;6995;-61
2022/11/24 08:01:23;;;;;;;;;;;;;;;24.61;45.54;93973.41;4986512;28;7300;-61
2022/11/24 08:03:49;;;;;;;;;;;;;;;24.59;45.03;93984.19;5002538;28;7107;-61
2022/11/24 08:06:15;;;;;;;;;;;;;;;24.58;45.53;93990.91;4998119;28;7315;-61
2022/11/24 08:08:41;;;;;;;;;;;;;;;24.58;45.52;93990.16;4988488;28;9560;-61
2022/11/24 08:11:10;;;;;;;;;;;;;;;24.57;45.96;93994.94;4983179;28;7159;-61
2022/11/24 08:13:43;;;;;;;;;;;;;;;24.59;45.81;94008.19;4983655;28;7169;-61
2022/11/24 08:16:17;;;;;;;;;;;;;;;24.59;45.46;94010.94;4990517;28;7157;-61
2022/11/24 08:19:05;;;;;;;;;;;;;;;24.60;45.84;94015.16;4985243;28;6994;-61
2022/11/24 08:21:32;;;;;;;;;;;;;;;24.58;46.03;94014.91;4988332;28;8240;-61
2022/11/24 08:24:04;;;;;;;;;;;;;;;24.58;45.87;94015.66;4986688;28;7283;-61
2022/11/24 08:26:41;;;;;;;;;;;;;;;24.59;46.01;94014.44;5000035;28;9331;-61
2022/11/24 08:29:17;;;;;;;;;;;;;;;24.59;45.63;94019.91;4991452;28;7809;-61
2022/11/24 08:31:45;;;;;;;;;;;;;;;24.59;46.25;94033.66;4985524;28;7038;-61
2022/11/24 08:34:20;;;;;;;;;;;;;;;24.60;45.52;94048.91;4988942;28;7440;-61
2022/11/24 08:36:47;;;;;;;;;;;;;;;24.61;45.99;94046.91;4984728;28;7268;-61
2022/11/24 08:39:23;;;;;;;;;;;;;;;24.60;45.24;94018.66;4985556;28;7387;-61
2022/11/24 08:41:51;;;;;;;;;;;;;;;24.61;45.32;94041.41;4985708;28;9355;-61
2022/11/24 08:44:17;;;;;;;;;;;;;;;24.60;46.01;94026.91;5005317;28;7078;-61
2022/11/24 08:46:45;;;;;;;;;;;;;;;24.60;45.82;94043.41;4991020;28;7032;-61
2022/11/24 08:49:14;;;;;;;;;;;;;;;24.62;45.66;94046.38;4981807;28;7236;-61
2022/11/24 08:51:42;;;;;;;;;;;;;;;24.61;45.93;94060.66;4989821;28;7035;-61
2022/11/24 08:54:12;;;;;;;;;;;;;;;24.59;45.81;94069.41;4982418;28;7364;-61
2022/11/24 08:56:45;;;;;;;;;;;;;;;24.58;46.21;94073.41;4988100;28;9388;-60
2022/11/24 08:59:39;;;;;;;;;;;;;;;24.60;46.22;94083.88;4971718;28;7026;-61
2022/11/24 09:02:05;;;;;;;;;;;;;;;24.60;45.66;94092.13;4952058;28;7102;-61
2022/11/24 09:04:31;;;;;;;;;;;;;;;24.58;46.28;94098.16;4954280;28;7212;-61
2022/11/24 09:06:59;;;;;;;;;;;;;;;24.56;45.67;94097.94;4956629;28;7125;-61
2022/11/24 09:09:28;;;;;;;;;;;;;;;24.57;45.84;94115.94;4963445;28;7030;-61
2022/11/24 09:11:54;;;;;;;;;;;;;;;24.57;46.19;94109.69;4955809;28;7047;-61
2022/11/24 09:14:29;;;;;;;;;;;;;;;24.57;45.86;94109.69;4972271;28;7500;-61
2022/11/24 09:17:04;;;;;;;;;;;;;;;24.57;46.17;94110.44;4950878;28;7270;-60
2022/11/24 09:19:39;;;;;;;;;;;;;;;24.56;46.03;94117.16;4949445;28;7282;-61
2022/11/24 09:22:14;;;;;;;;;;;;;;;24.59;46.26;94135.41;4953426;28;7288;-61
2022/11/24 09:24:43;;;;;;;;;;;;;;;24.60;46.38;94136.13;4951726;28;7428;-60
2022/11/24 09:27:12;;;;;;;;;;;;;;;24.58;45.73;94133.16;4971632;28;7092;-61
2022/11/24 09:29:40;;;;;;;;;;;;;;;24.57;46.23;94148.94;4971564;28;7202;-61
2022/11/24 09:32:09;;;;;;;;;;;;;;;24.60;46.24;94152.63;4956655;28;7157;-61
2022/11/24 09:34:39;;;;;;;;;;;;;;;24.60;46.25;94158.88;4959176;28;7309;-61
2022/11/24 09:37:08;;;;;;;;;;;;;;;24.60;46.14;94161.63;4953861;28;7088;-61
2022/11/24 09:39:41;;;;;;;;;;;;;;;24.61;45.93;94154.91;4987218;28;7363;-61
2022/11/24 09:42:26;;;;;;;;;;;;;;;24.62;45.73;94156.38;4998352;28;7277;-61
2022/11/24 09:45:18;;;;;;;;;;;;;;;24.61;45.58;94152.16;4982607;28;7268;-61
2022/11/24 09:48:08;;;;;;;;;;;;;;;24.60;46.25;94164.38;5008236;28;7543;-61
2022/11/24 09:50:37;;;;;;;;;;;;;;;24.60;46.06;94172.63;4998732;28;7206;-61
2022/11/24 09:53:14;;;;;;;;;;;;;;;24.61;45.68;94170.63;4988514;28;8855;-61
2022/11/24 09:55:48;;;;;;;;;;;;;;;24.59;45.79;94167.66;4992960;28;9520;-61
2022/11/24 09:58:51;;;;;;;;;;;;;;;24.62;46.20;94174.91;5006101;28;7693;-61
2022/11/24 10:01:30;;;;;;;;;;;;;;;24.62;46.13;94163.91;4990543;28;7371;-61
2022/11/24 10:03:56;;;;;;;;;;;;;;;24.62;46.24;94170.13;4983601;28;9521;-61
2022/11/24 10:06:25;;;;;;;;;;;;;;;24.64;46.52;94162.09;4980078;28;8050;-61
2022/11/24 10:09:22;;;;;;;;;;;;;;;24.62;45.83;94172.16;4990124;28;7023;-61
2022/11/24 10:12:00;;;;;;;;;;;;;;;24.61;45.50;94170.63;4972253;28;7398;-61
2022/11/24 10:14:58;;;;;;;;;;;;;;;24.59;46.52;94179.41;4988902;28;8362;-61
2022/11/24 10:18:01;;;;;;;;;;;;;;;24.60;46.29;94178.13;4982990;28;9041;-61
2022/11/24 10:21:06;;;;;;;;;;;;;;;24.67;46.38;94177.59;4988872;28;7357;-61
2022/11/24 10:24:11;;;;;;;;;;;;;;;24.65;46.19;94174.63;4990372;28;7345;-61
2022/11/24 10:26:45;;;;;;;;;;;;;;;24.66;45.77;94181.59;4970535;28;7577;-60
2022/11/24 10:29:30;;;;;;;;;;;;;;;24.64;46.15;94180.63;4974099;28;7343;-61
2022/11/24 10:31:56;;;;;;;;;;;;;;;24.62;46.31;94188.66;4990775;28;8543;-61
2022/11/24 10:34:44;;;;;;;;;;;;;;;24.61;46.00;94176.91;4969357;28;8256;-61
2022/11/24 10:37:11;;;;;;;;;;;;;;;24.63;46.12;94179.13;4985134;28;7283;-61
2022/11/24 10:39:56;;;;;;;;;;;;;;;24.63;46.44;94179.13;4988793;28;7033;-61
2022/11/24 10:42:37;;;;;;;;;;;;;;;24.61;45.58;94185.16;5001577;28;7283;-61
2022/11/24 10:45:18;;;;;;;;;;;;;;;24.62;46.44;94175.63;4992178;28;7052;-61
2022/11/24 10:47:48;;;;;;;;;;;;;;;24.63;45.89;94179.88;4985959;28;7232;-61
2022/11/24 10:50:16;;;;;;;;;;;;;;;24.65;45.95;94187.63;4979643;28;8463;-61
2022/11/24 10:53:12;;;;;;;;;;;;;;;24.63;46.46;94190.88;4984810;28;7623;-61
2022/11/24 10:55:53;;;;;;;;;;;;;;;24.63;45.47;94188.13;4984189;28;7515;-60
2022/11/24 10:58:29;;;;;;;;;;;;;;;24.63;45.94;94174.38;4979667;28;7201;-60
2022/11/24 11:01:30;;;;;;;;;;;;;;;24.62;46.17;94183.16;4995140;28;7316;-61
2022/11/24 11:03:58;;;;;;;;;;;;;;;24.61;45.55;94171.41;4983578;28;6980;-60
2022/11/24 11:06:26;;;;;;;;;;;;;;;24.62;46.03;94172.16;5004575;28;7262;-60
2022/11/24 11:09:19;;;;;;;;;;;;;;;24.61;45.50;94171.41;4991731;28;7286;-60
2022/11/24 11:11:49;;;;;;;;;;;;;;;24.60;45.71;94172.63;4982366;28;7216;-60
2022/11/24 11:14:36;;;;;;;;;;;;;;;24.61;45.74;94171.41;4984302;28;7273;-61
2022/11/24 11:17:33;;;;;;;;;;;;;;;24.63;45.91;94168.88;4979058;28;8530;-60
2022/11/24 11:20:17;;;;;;;;;;;;;;;24.63;46.78;94162.63;5003465;28;7192;-60
2022/11/24 11:22:51;;;;;;;;;;;;;;;24.64;46.32;94158.63;4978093;28;7524;-61
2022/11/24 11:25:32;;;;;;;;;;;;;;;24.63;46.00;94168.88;4957712;28;10257;-61
2022/11/24 11:28:18;;;;;;;;;;;;;;;24.63;46.58;94179.13;4987723;28;7320;-61
2022/11/24 11:30:59;;;;;;;;;;;;;;;24.63;46.17;94174.38;4980250;28;7023;-60
2022/11/24 11:33:32;;;;;;;;;;;;;;;24.64;46.47;94186.84;4987973;28;7049;-60
2022/11/24 11:36:09;;;;;;;;;;;;;;;24.67;46.61;94179.59;4988829;28;7284;-60
2022/11/24 11:38:47;;;;;;;;;;;;;;;24.68;46.75;94175.59;5000276;28;7051;-60
2022/11/24 11:41:24;;;;;;;;;;;;;;;24.70;46.17;94176.59;4980850;28;7364;-61
2022/11/24 11:44:03;;;;;;;;;;;;;;;24.73;46.41;94171.31;4978253;28;7344;-61
2022/11/24 11:46:34;;;;;;;;;;;;;;;24.73;46.19;94167.31;4978786;28;7325;-61
2022/11/24 11:49:03;;;;;;;;;;;;;;;24.75;46.39;94168.84;4983100;28;7048;-61
2022/11/24 11:52:12;;;;;;;;;;;;;;;24.77;46.53;94171.81;4988837;28;7097;-61
2022/11/24 11:55:20;;;;;;;;;;;;;;;24.81;46.23;94172.28;4979658;28;8687;-62
2022/11/24 11:58:04;;;;;;;;;;;;;;;24.86;46.17;94185.28;4983513;28;7045;-61
2022/11/24 12:00:40;;;;;;;;;;;;;;;24.92;46.18;94189.47;4994930;28;8623;-61
2022/11/24 12:03:38;;;;;;;;;;;;;;;24.99;45.71;94188.19;4987186;28;7266;-61
2022/11/24 12:06:41;;;;;;;;;;;;;;;25.00;46.36;94195.91;4987961;28;9850;-62
2022/11/24 12:09:23;;;;;;;;;;;;;;;25.03;45.63;94194.16;5002016;28;7298;-61
2022/11/24 12:12:02;;;;;;;;;;;;;;;25.03;46.06;94199.66;5000899;28;7035;-61
2022/11/24 12:14:56;;;;;;;;;;;;;;;25.02;46.37;94192.63;4987487;28;7315;-61
2022/11/24 12:17:39;;;;;;;;;;;;;;;25.01;45.63;94197.38;4992929;28;7026;-61
2022/11/24 12:20:17;;;;;;;;;;;;;;;25.04;45.69;94195.63;4983684;28;7269;-62
2022/11/24 12:23:20;;;;;;;;;;;;;;;25.10;45.45;94201.84;4985401;28;7110;-61
2022/11/24 12:25:58;;;;;;;;;;;;;;;25.06;45.36;94207.63;4986236;28;7061;-61
2022/11/24 12:28:39;;;;;;;;;;;;;;;25.08;46.37;94201.59;5004979;28;7359;-61
2022/11/24 12:31:34;;;;;;;;;;;;;;;25.08;45.70;94207.09;4985912;28;9367;-62
2022/11/24 12:34:20;;;;;;;;;;;;;;;25.11;45.23;94206.84;4956153;28;7195;-61
2022/11/24 12:37:06;;;;;;;;;;;;;;;25.10;45.46;94205.34;4962903;28;8254;-61
2022/11/24 12:39:57;;;;;;;;;;;;;;;25.14;46.10;94191.31;4963305;28;7328;-62
2022/11/24 12:43:00;;;;;;;;;;;;;;;25.16;45.21;94205.31;4954796;28;7213;-61
2022/11/24 12:45:47;;;;;;;;;;;;;;;25.09;46.03;94195.59;4959100;28;7241;-61
2022/11/24 12:48:28;;;;;;;;;;;;;;;25.11;45.79;94195.06;4938538;28;7573;-61
2022/11/24 12:50:57;;;;;;;;;;;;;;;25.10;45.89;94197.06;4956116;28;7244;-61
2022/11/24 12:53:36;;;;;;;;;;;;;;;25.14;45.55;94192.03;4950176;28;7058;-61
2022/11/24 12:56:16;;;;;;;;;;;;;;;25.12;45.43;94191.81;4940749;28;7129;-61
2022/11/24 12:59:28;;;;;;;;;;;;;;;25.15;46.30;94190.78;4953933;28;7367;-62
2022/11/24 13:05:24;;;;;;;;;;;;;;;25.22;45.52;94181.97;4954282;28;8472;-61
2022/11/24 13:08:01;;;;;;;;;;;;;;;25.24;45.52;94187.72;4954274;28;7288;-61
2022/11/24 13:10:39;;;;;;;;;;;;;;;25.25;45.39;94185.72;4963809;28;7552;-61
2022/11/24 13:14:11;;;;;;;;;;;;;;;25.31;45.88;94194.66;4978951;28;9414;-61
2022/11/24 13:16:56;;;;;;;;;;;;;;;25.34;45.31;94196.38;4973686;28;7634;-61
2022/11/24 13:19:36;;;;;;;;;;;;;;;25.36;45.58;94191.09;4958034;28;9406;-62
2022/11/24 13:22:23;;;;;;;;;;;;;;;25.40;45.70;94199.84;4967135;28;8527;-61
2022/11/24 13:25:18;;;;;;;;;;;;;;;25.43;45.70;94201.59;4972925;28;7315;-62
2022/11/24 13:27:58;;;;;;;;;;;;;;;25.43;45.97;94205.09;4957053;28;7344;-61
2022/11/24 13:30:52;;;;;;;;;;;;;;;25.48;45.17;94213.81;4964443;28;7543;-62
2022/11/24 13:33:32;;;;;;;;;;;;;;;25.51;45.13;94215.56;4963286;28;7391;-62
2022/11/24 13:36:02;;;;;;;;;;;;;;;25.52;45.21;94220.53;4953242;28;7274;-62
2022/11/24 13:38:44;;;;;;;;;;;;;;;25.53;45.11;94205.53;4959211;28;7240;-61
2022/11/24 13:42:03;;;;;;;;;;;;;;;25.56;44.72;94210.00;4969918;28;9017;-61